Time;durP1;ratioP1;P1;durP2;ratioP2;P2;SDS_P1;SDS_P2;PMS_P1;PMS_P2;Temp;Humidity;BMP_temperature;BMP_pressure;BME280_temperature;BME280_humidity;BME280_pressure;Samples;Min_cycle;Max_cycle;Signal;HPM_P1;HPM_P2
2023/10/08 00:01:57;;;;;;;;;12.60;9.00;;;;;17.19;56.70;99578.44;6338057;20;2777430;-41
2023/10/08 00:04:25;;;;;;;;;12.00;6.00;;;;;17.17;57.08;99566.88;6286962;20;2764894;-42
2023/10/08 00:06:54;;;;;;;;;11.33;11.00;;;;;16.91;57.92;99558.41;6281383;20;3514017;-40
2023/10/08 00:09:24;;;;;;;;;7.60;6.80;;;;;16.99;57.94;99542.28;6342036;20;2742172;-40
2023/10/08 00:11:55;;;;;;;;;6.40;6.40;;;;;17.17;57.01;99542.44;6338231;20;2746150;-41
2023/10/08 00:14:24;;;;;;;;;11.33;10.67;;;;;17.07;56.98;99537.88;6312979;20;2792103;-41
2023/10/08 00:16:54;;;;;;;;;6.80;5.80;;;;;17.27;55.55;99544.22;6337786;20;2731613;-39
2023/10/08 00:19:24;;;;;;;;;8.20;8.20;;;;;17.47;54.85;99544.22;6335852;20;2746622;-42
2023/10/08 00:21:53;;;;;;;;;10.00;6.00;;;;;17.56;54.25;99543.34;6314678;20;2761776;-41
2023/10/08 00:24:26;;;;;;;;;12.00;10.50;;;;;17.52;54.46;99547.38;6282172;20;2778444;-44
2023/10/08 00:26:56;;;;;;;;;14.00;10.00;;;;;17.42;54.33;99546.50;6312154;20;2784784;-40
2023/10/08 00:29:24;;;;;;;;;10.33;9.33;;;;;17.32;55.15;99530.19;6310933;20;2783722;-40
2023/10/08 00:31:56;;;;;;;;;3.80;3.80;;;;;17.47;53.84;99542.34;6336598;20;2748329;-40
2023/10/08 00:34:27;;;;;;;;;6.00;4.60;;;;;17.50;53.74;99536.63;6334492;20;2752373;-40
2023/10/08 00:36:57;;;;;;;;;6.00;6.00;;;;;17.47;53.72;99534.22;6304857;20;2728380;-40
2023/10/08 00:39:33;;;;;;;;;6.80;6.80;;;;;17.45;53.78;99533.50;6339615;20;2743190;-42
2023/10/08 00:42:06;;;;;;;;;7.00;5.80;;;;;17.52;53.56;99537.34;6340431;20;2729456;-42
2023/10/08 00:44:51;;;;;;;;;8.20;8.00;;;;;17.35;54.54;99535.34;6338127;20;2753540;-40
2023/10/08 00:47:26;;;;;;;;;7.00;6.00;;;;;17.35;54.74;99538.03;6336258;20;2732548;-40
2023/10/08 00:50:02;;;;;;;;;9.50;7.50;;;;;17.22;55.09;99534.75;6313918;20;2753460;-41
2023/10/08 00:52:40;;;;;;;;;6.25;5.50;;;;;17.15;55.75;99536.34;6312485;20;2747161;-39
2023/10/08 00:55:14;;;;;;;;;7.00;7.00;;;;;17.00;56.35;99530.44;6282925;20;2741960;-40
2023/10/08 00:57:48;;;;;;;;;8.20;7.00;;;;;17.03;56.59;99519.31;6308407;20;2746176;-40
2023/10/08 01:00:21;;;;;;;;;6.20;6.20;;;;;17.15;55.47;99512.75;6338121;20;2733802;-45
2023/10/08 01:03:00;;;;;;;;;5.00;4.80;;;;;17.24;55.05;99509.19;6339558;20;2742977;-45
2023/10/08 01:05:50;;;;;;;;;4.50;4.50;;;;;17.31;54.71;99504.91;6310051;20;2748232;-43
2023/10/08 01:08:34;;;;;;;;;8.00;7.00;;;;;17.43;54.06;99518.34;6286462;20;2732611;-44
2023/10/08 01:11:34;;;;;;;;;15.50;14.00;;;;;17.42;53.63;99525.63;6280892;20;2492059;-40
2023/10/08 01:14:07;;;;;;;;;24.33;19.33;;;;;17.20;54.72;99521.34;6285074;20;3591897;-39
2023/10/08 01:16:36;;;;;;;;;13.67;12.67;;;;;17.11;54.85;99516.75;6275422;20;3520203;-40
2023/10/08 01:19:12;;;;;;;;;13.67;12.00;;;;;17.08;54.19;99511.59;6279122;20;3512791;-39
2023/10/08 01:21:40;;;;;;;;;8.00;8.00;;;;;17.13;54.40;99517.47;6313398;20;2737839;-40
2023/10/08 01:24:08;;;;;;;;;5.00;5.00;;;;;17.15;54.43;99526.34;6282317;20;2750369;-42
2023/10/08 01:26:39;;;;;;;;;5.00;4.00;;;;;17.00;54.40;99519.59;6281708;20;2756572;-41
2023/10/08 01:29:19;;;;;;;;;9.00;5.00;;;;;17.10;53.62;99515.03;6283599;20;2752546;-42
2023/10/08 01:31:49;;;;;;;;;6.50;5.50;;;;;17.15;53.75;99518.19;6303168;20;1825509;-41
2023/10/08 01:34:19;;;;;;;;;5.80;5.60;;;;;17.14;53.82;99515.59;6343374;20;2745073;-40
2023/10/08 01:36:47;;;;;;;;;8.50;4.50;;;;;17.19;53.33;99508.75;6318963;20;2755985;-40
2023/10/08 01:39:17;;;;;;;;;6.20;4.60;;;;;17.37;52.40;99516.22;6311702;20;2747149;-40
2023/10/08 01:41:46;;;;;;;;;8.67;5.00;;;;;17.56;51.79;99505.34;6314241;20;2760733;-40
2023/10/08 01:44:14;;;;;;;;;4.00;4.00;;;;;17.48;51.51;99491.63;6314993;20;2754443;-39
2023/10/08 01:46:43;;;;;;;;;6.50;6.00;;;;;17.66;50.58;99495.34;6288402;20;2748284;-41
2023/10/08 01:49:14;;;;;;;;;5.00;4.00;;;;;17.72;50.46;99500.19;6288646;20;2756770;-40
2023/10/08 01:51:46;;;;;;;;;8.40;5.00;;;;;17.90;49.65;99480.47;6312727;20;2744042;-41
2023/10/08 01:54:20;;;;;;;;;3.60;3.60;;;;;17.94;49.50;99492.75;6342378;20;2753513;-40
2023/10/08 01:56:50;;;;;;;;;6.50;5.00;;;;;17.88;49.47;99486.06;6285951;20;2748183;-41
2023/10/08 01:59:18;;;;;;;;;5.50;5.50;;;;;17.91;49.46;99471.31;6286524;20;2745126;-40
2023/10/08 02:01:46;;;;;;;;;5.00;4.00;;;;;17.98;49.24;99470.59;6291443;20;2748240;-40
2023/10/08 02:04:16;;;;;;;;;4.00;4.00;;;;;17.92;48.93;99465.72;6309765;20;2754590;-41
2023/10/08 02:06:46;;;;;;;;;5.00;4.00;;;;;17.89;49.15;99473.31;6281173;20;2756581;-40
2023/10/08 02:09:15;;;;;;;;;5.00;5.00;;;;;17.97;48.53;99452.56;6288932;20;2748423;-41
2023/10/08 02:11:50;;;;;;;;;4.00;4.00;;;;;17.93;48.39;99443.00;6289192;20;2748213;-40
2023/10/08 02:14:20;;;;;;;;;3.00;3.00;;;;;17.98;48.77;99464.28;6289317;20;2747154;-40
2023/10/08 02:16:55;;;;;;;;;7.50;4.00;;;;;17.81;49.25;99456.91;6287897;20;2756557;-40
2023/10/08 02:19:27;;;;;;;;;5.00;5.00;;;;;17.78;49.34;99460.75;6289214;20;2748325;-41
2023/10/08 02:21:57;;;;;;;;;5.00;4.00;;;;;17.67;49.39;99466.34;6288921;20;2746252;-41
2023/10/08 02:24:26;;;;;;;;;4.50;4.50;;;;;17.74;49.46;99468.31;6289487;20;2752365;-41
2023/10/08 02:26:57;;;;;;;;;5.20;4.00;;;;;17.78;49.50;99467.03;6310567;20;2754575;-40
2023/10/08 02:29:29;;;;;;;;;4.00;4.00;;;;;17.81;49.22;99454.19;6283887;20;2750453;-42
2023/10/08 02:31:59;;;;;;;;;7.50;4.00;;;;;18.02;49.00;99463.00;6289900;20;2747166;-42
2023/10/08 02:34:27;;;;;;;;;8.00;5.00;;;;;18.02;48.86;99457.56;6283419;20;2747299;-42
2023/10/08 02:36:56;;;;;;;;;4.00;4.00;;;;;18.00;48.85;99443.25;6287186;20;2746114;-40
2023/10/08 02:39:27;;;;;;;;;4.00;4.00;;;;;18.11;48.34;99439.50;6286135;20;2756658;-40
2023/10/08 02:41:58;;;;;;;;;4.00;4.00;;;;;18.18;48.28;99446.91;6288983;20;2753143;-42
2023/10/08 02:44:27;;;;;;;;;5.00;5.00;;;;;18.33;47.91;99449.16;6285729;20;2756524;-41
2023/10/08 02:46:55;;;;;;;;;6.50;3.00;;;;;18.40;47.48;99440.25;6287597;20;2754475;-41
2023/10/08 02:49:23;;;;;;;;;3.00;3.00;;;;;18.33;47.82;99441.00;6285624;20;2751323;-42
2023/10/08 02:51:54;;;;;;;;;4.50;4.00;;;;;18.30;48.26;99441.28;6289385;20;2750284;-41
2023/10/08 02:54:31;;;;;;;;;7.50;4.00;;;;;18.24;48.27;99445.47;6287065;20;2756553;-42
2023/10/08 02:57:03;;;;;;;;;5.67;5.00;;;;;18.25;48.30;99444.47;6286645;20;2756577;-41
2023/10/08 02:59:44;;;;;;;;;3.60;3.60;;;;;18.18;48.70;99448.78;6338682;20;2740942;-41
2023/10/08 03:02:18;;;;;;;;;5.00;5.00;;;;;18.12;48.85;99444.81;6318579;20;2747164;-42
2023/10/08 03:04:52;;;;;;;;;3.00;3.00;;;;;18.02;49.48;99429.53;6286946;20;2743036;-42
2023/10/08 03:07:23;;;;;;;;;4.60;4.00;;;;;18.00;49.42;99435.13;6307315;20;2756563;-45
2023/10/08 03:10:17;;;;;;;;;4.50;4.00;;;;;17.87;49.77;99435.44;6286705;20;2750259;-42
2023/10/08 03:12:47;;;;;;;;;3.50;3.50;;;;;17.89;50.17;99421.72;6289634;20;2746133;-44
2023/10/08 03:15:31;;;;;;;;;6.50;3.50;;;;;17.68;50.40;99411.88;6287589;20;2756590;-40
2023/10/08 03:18:09;;;;;;;;;5.50;5.50;;;;;17.70;50.99;99422.59;6288428;20;2741956;-45
2023/10/08 03:20:38;;;;;;;;;8.00;5.50;;;;;17.67;50.70;99423.75;6291044;20;2736864;-41
2023/10/08 03:23:12;;;;;;;;;5.00;4.00;;;;;17.50;51.30;99425.34;6286499;20;2752373;-43
2023/10/08 03:25:41;;;;;;;;;6.00;4.50;;;;;17.44;51.88;99425.06;6286958;20;2749288;-43
2023/10/08 03:28:12;;;;;;;;;5.00;5.00;;;;;17.57;51.77;99420.19;6287962;20;2737799;-43
2023/10/08 03:30:50;;;;;;;;;4.00;4.00;;;;;17.57;50.92;99428.34;6287132;20;2750316;-40
2023/10/08 03:33:23;;;;;;;;;3.20;3.20;;;;;17.43;52.22;99417.91;6312734;20;2746172;-40
2023/10/08 03:35:55;;;;;;;;;3.50;3.00;;;;;17.40;52.27;99420.94;6314105;20;2754819;-41
2023/10/08 03:38:44;;;;;;;;;4.00;4.00;;;;;17.36;52.61;99419.53;6285626;20;2754522;-41
2023/10/08 03:41:18;;;;;;;;;4.00;4.00;;;;;17.38;52.50;99414.78;6311250;20;2754500;-41
2023/10/08 03:43:56;;;;;;;;;6.00;5.00;;;;;17.45;52.12;99411.34;6309881;20;2745164;-41
2023/10/08 03:46:26;;;;;;;;;4.00;4.00;;;;;17.50;51.78;99402.78;6317434;20;2748194;-40
2023/10/08 03:48:57;;;;;;;;;6.50;5.00;;;;;17.47;52.06;99408.50;6286832;20;2748209;-42
2023/10/08 03:51:27;;;;;;;;;5.00;4.50;;;;;17.41;52.18;99409.09;6286891;20;2751397;-41
2023/10/08 03:53:59;;;;;;;;;6.00;5.00;;;;;17.43;52.33;99407.06;6286188;20;2749393;-41
2023/10/08 03:56:31;;;;;;;;;6.50;4.50;;;;;17.39;52.18;99400.22;6283603;20;2752412;-40
2023/10/08 03:59:12;;;;;;;;;5.00;3.00;;;;;17.38;52.66;99396.66;6285163;20;2752387;-41
2023/10/08 04:01:43;;;;;;;;;5.50;4.00;;;;;17.27;52.71;99389.53;6285113;20;2748173;-41
2023/10/08 04:04:13;;;;;;;;;4.00;4.00;;;;;17.26;53.26;99381.53;6286727;20;2754874;-41
2023/10/08 04:06:49;;;;;;;;;2.00;2.00;;;;;17.24;52.79;99380.81;6285813;20;2744036;-41
2023/10/08 04:14:21;;;;;;;;;4.00;4.00;;;;;17.07;53.72;99376.97;6286661;20;2752422;-40
2023/10/08 04:16:51;;;;;;;;;6.00;5.00;;;;;17.08;54.03;99378.69;6285903;20;2747274;-41
2023/10/08 04:19:26;;;;;;;;;3.00;3.00;;;;;17.10;54.22;99382.13;6286973;20;2752464;-43
2023/10/08 04:21:56;;;;;;;;;3.00;3.00;;;;;17.20;53.64;99391.09;6287262;20;2731552;-41
2023/10/08 04:24:36;;;;;;;;;5.00;5.00;;;;;17.22;53.67;99383.69;6308128;20;2748165;-43
2023/10/08 04:27:06;;;;;;;;;6.00;5.00;;;;;17.02;54.36;99381.97;6314088;20;2749278;-40
2023/10/08 04:29:37;;;;;;;;;5.00;5.00;;;;;17.08;54.27;99374.09;6287764;20;2752514;-41
2023/10/08 04:32:12;;;;;;;;;4.00;4.00;;;;;16.82;55.71;99368.41;6283636;20;2756493;-40
2023/10/08 04:34:45;;;;;;;;;6.00;4.00;;;;;16.98;54.60;99366.97;6285652;20;2754427;-42
2023/10/08 04:37:17;;;;;;;;;5.00;4.00;;;;;16.80;55.71;99370.41;6284176;20;2754559;-39
2023/10/08 04:39:48;;;;;;;;;4.50;4.50;;;;;16.81;55.17;99366.69;6285110;20;2752353;-41
2023/10/08 04:42:25;;;;;;;;;4.00;4.00;;;;;16.73;55.90;99355.69;6280598;20;2746123;-40
2023/10/08 04:44:54;;;;;;;;;6.00;5.00;;;;;16.71;56.34;99354.09;6285826;20;2747260;-40
2023/10/08 04:47:32;;;;;;;;;6.00;4.50;;;;;16.73;56.51;99354.81;6279617;20;2751448;-41
2023/10/08 04:50:04;;;;;;;;;6.50;4.00;;;;;16.72;56.72;99353.97;6286336;20;2754445;-39
2023/10/08 04:52:34;;;;;;;;;6.00;6.00;;;;;16.74;56.70;99364.66;6281944;20;2748343;-41
2023/10/08 04:55:12;;;;;;;;;6.00;4.50;;;;;16.88;55.91;99370.56;6283613;20;2744260;-41
2023/10/08 04:57:42;;;;;;;;;6.00;4.00;;;;;16.91;55.92;99352.31;6286248;20;2748216;-42
2023/10/08 05:00:15;;;;;;;;;7.00;5.00;;;;;16.87;56.14;99357.13;6285463;20;2750395;-40
2023/10/08 05:02:54;;;;;;;;;5.00;5.00;;;;;16.91;56.38;99355.00;6287698;20;2748205;-42
2023/10/08 05:05:22;;;;;;;;;6.00;5.00;;;;;16.78;56.93;99364.28;6286513;20;2750424;-40
2023/10/08 05:15:35;;;;;;;;;8.00;4.50;;;;;17.86;54.58;99359.56;6290093;20;2751378;-39
2023/10/08 05:20:44;;;;;;;;;2.00;1.00;;;;;17.97;54.97;99365.63;6319929;20;2733644;-41
2023/10/08 05:31:46;;;;;;;;;5.80;4.40;;;;;18.26;53.64;99358.34;6310950;20;2752391;-41
2023/10/08 05:34:17;;;;;;;;;6.50;4.00;;;;;18.27;53.46;99368.22;6287592;20;2748487;-41
2023/10/08 05:39:42;;;;;;;;;10.00;5.50;;;;;18.33;54.00;99367.63;6289542;20;2783751;-42
2023/10/08 05:42:16;;;;;;;;;4.33;3.00;;;;;18.53;53.46;99363.75;6289746;20;2756582;-40
2023/10/08 05:44:50;;;;;;;;;2.00;1.00;;;;;18.56;53.23;99363.47;6319344;20;2729459;-42
2023/10/08 05:50:39;;;;;;;;;5.50;5.50;;;;;18.64;53.34;99369.00;6317823;20;2750285;-43
2023/10/08 05:55:34;;;;;;;;;4.80;3.80;;;;;18.90;53.11;99376.41;6339829;20;2740941;-40
2023/10/08 06:03:35;;;;;;;;;4.00;3.00;;;;;19.00;53.00;99371.72;6288345;20;2746157;-41
2023/10/08 06:07:11;;;;;;;;;4.33;4.33;;;;;19.19;52.74;99372.56;6316552;20;2745085;-41
2023/10/08 06:09:21;;;;;;;;;8.40;4.00;;;;;19.08;53.17;99347.31;6340305;20;2762813;-41
2023/10/08 06:12:10;;;;;;;;;4.67;4.67;;;;;19.39;52.20;99359.63;6285525;20;2756539;-41
2023/10/08 06:15:02;;;;;;;;;8.40;5.80;;;;;19.55;52.25;99358.91;6341087;20;2739959;-41
2023/10/08 06:20:25;;;;;;;;;6.67;3.67;;;;;19.89;50.77;99372.59;6284656;20;2738832;-42
2023/10/08 06:23:00;;;;;;;;;5.60;5.40;;;;;19.89;51.17;99383.50;6339935;20;2750328;-41
2023/10/08 06:25:30;;;;;;;;;10.00;5.00;;;;;19.92;50.88;99373.09;6284752;20;2767148;-40
2023/10/08 06:27:59;;;;;;;;;9.00;4.00;;;;;19.99;51.31;99386.09;6316146;20;2760125;-43
2023/10/08 06:30:29;;;;;;;;;7.20;5.80;;;;;20.04;51.28;99386.47;6341127;20;2756630;-42
2023/10/08 06:32:58;;;;;;;;;8.00;6.00;;;;;20.07;50.85;99402.50;6276126;20;2754479;-42
2023/10/08 06:35:28;;;;;;;;;6.33;5.00;;;;;20.14;50.70;99398.06;6313206;20;2752366;-42
2023/10/08 06:38:00;;;;;;;;;7.80;5.00;;;;;20.20;50.97;99397.44;6341702;20;2747286;-43
2023/10/08 06:43:24;;;;;;;;;2.60;2.60;;;;;20.24;50.91;99401.53;6340333;20;2743058;-40
2023/10/08 06:45:58;;;;;;;;;12.20;5.60;;;;;20.23;51.27;99394.38;6339076;20;2786778;-42
2023/10/08 06:48:29;;;;;;;;;10.60;8.80;;;;;20.24;51.38;99395.25;6310003;20;2765957;-40
2023/10/08 06:50:58;;;;;;;;;7.67;4.00;;;;;20.26;51.73;99402.22;6286404;20;2749333;-41
2023/10/08 06:53:29;;;;;;;;;11.20;5.00;;;;;20.20;51.75;99394.72;6339366;20;2769064;-43
2023/10/08 06:56:03;;;;;;;;;3.00;3.00;;;;;20.20;51.91;99402.91;6284944;20;2744081;-41
2023/10/08 06:58:33;;;;;;;;;5.33;5.00;;;;;20.18;52.10;99404.94;6311285;20;2748261;-41
2023/10/08 07:01:08;;;;;;;;;43.00;17.33;;;;;20.16;51.72;99404.22;6313228;20;3589865;-43
2023/10/08 07:03:40;;;;;;;;;10.67;5.33;;;;;20.22;52.10;99414.50;6282799;20;2771246;-43
2023/10/08 07:06:25;;;;;;;;;5.80;4.60;;;;;20.19;52.49;99412.06;6337812;20;2752909;-47
2023/10/08 07:08:55;;;;;;;;;6.67;3.00;;;;;20.18;52.41;99404.94;6313707;20;2739948;-48
2023/10/08 07:11:24;;;;;;;;;7.33;3.67;;;;;20.11;52.39;99412.88;6314383;20;2754488;-50
2023/10/08 07:13:54;;;;;;;;;3.40;3.40;;;;;20.11;52.72;99409.31;6337179;20;2756587;-46
2023/10/08 07:16:23;;;;;;;;;9.00;8.00;;;;;19.99;52.99;99410.63;6285438;20;2763842;-50
2023/10/08 07:18:55;;;;;;;;;6.00;5.60;;;;;20.07;52.91;99424.31;6339587;20;2748201;-48
2023/10/08 07:21:43;;;;;;;;;5.40;4.00;;;;;19.94;54.13;99413.84;6310067;20;2745052;-49
2023/10/08 07:24:17;;;;;;;;;55.00;28.00;;;;;20.10;53.31;99410.34;6287252;20;2853528;-45
2023/10/08 07:26:47;;;;;;;;;10.60;4.80;;;;;20.30;52.66;99417.25;6309696;20;2761746;-47
2023/10/08 07:29:17;;;;;;;;;4.67;4.67;;;;;20.42;52.62;99403.31;6282156;20;2745217;-49
2023/10/08 07:31:52;;;;;;;;;6.00;3.80;;;;;20.78;51.44;99396.66;6331545;20;2753414;-47
2023/10/08 07:34:25;;;;;;;;;5.80;4.40;;;;;20.87;51.47;99405.69;6302786;20;2752516;-49
2023/10/08 07:36:55;;;;;;;;;5.40;5.40;;;;;21.23;51.16;99397.22;6304346;20;2739964;-48
2023/10/08 07:41:55;;;;;;;;;5.40;5.40;;;;;21.65;49.76;99409.88;6306215;20;2733627;-47
2023/10/08 07:44:35;;;;;;;;;12.40;10.20;;;;;21.58;49.67;99423.34;6338393;20;2807597;-50
2023/10/08 07:47:14;;;;;;;;;42.67;16.00;;;;;21.17;50.54;99423.34;6277302;20;3585673;-52
2023/10/08 07:49:45;;;;;;;;;9.33;6.67;;;;;21.42;50.41;99416.03;6291945;20;2030587;-49
2023/10/08 07:52:18;;;;;;;;;6.80;3.80;;;;;21.41;50.00;99417.06;6339275;20;2738846;-47
2023/10/08 07:54:48;;;;;;;;;9.40;5.80;;;;;21.48;50.01;99415.34;6307885;20;2758618;-46
2023/10/08 07:57:25;;;;;;;;;6.20;5.60;;;;;21.74;49.73;99430.69;6305470;20;2750347;-45
2023/10/08 08:00:18;;;;;;;;;6.60;5.00;;;;;21.94;49.83;99433.06;6321495;20;2462853;-50
2023/10/08 08:02:46;;;;;;;;;12.33;9.00;;;;;21.94;49.41;99452.19;6321955;20;2765938;-52
2023/10/08 08:05:17;;;;;;;;;8.00;5.20;;;;;21.97;49.09;99457.31;6339578;20;2739917;-52
2023/10/08 08:07:46;;;;;;;;;5.40;5.40;;;;;22.02;48.56;99453.03;6306834;20;2750287;-49
2023/10/08 08:10:18;;;;;;;;;5.50;4.00;;;;;21.94;49.79;99457.66;6305113;20;1920106;-48
2023/10/08 08:12:46;;;;;;;;;5.00;4.00;;;;;21.86;49.40;99453.06;6316629;20;2747176;-51
2023/10/08 08:15:16;;;;;;;;;4.80;3.60;;;;;22.04;49.50;99453.72;6340819;20;2750337;-47
2023/10/08 08:17:47;;;;;;;;;7.67;3.67;;;;;22.21;49.22;99459.16;6283722;20;2747254;-49
2023/10/08 08:20:22;;;;;;;;;5.67;5.67;;;;;21.76;50.05;99453.25;6322084;20;2745078;-49
2023/10/08 08:22:54;;;;;;;;;4.00;4.00;;;;;22.08;49.73;99455.06;6337405;20;2739906;-47
2023/10/08 08:25:33;;;;;;;;;7.00;4.67;;;;;22.19;49.60;99458.50;6281977;20;2740630;-49
2023/10/08 08:28:06;;;;;;;;;5.00;3.60;;;;;22.42;48.63;99461.34;6341409;20;2749262;-48
2023/10/08 08:30:36;;;;;;;;;2.80;2.80;;;;;22.63;48.66;99469.78;6302539;20;2752410;-49
2023/10/08 08:33:10;;;;;;;;;7.50;4.00;;;;;22.48;49.21;99480.63;6309451;20;2734659;-47
2023/10/08 08:35:40;;;;;;;;;4.00;2.00;;;;;22.87;48.50;99478.94;6303165;20;2756573;-47
2023/10/08 08:38:12;;;;;;;;;3.00;2.40;;;;;23.20;48.58;99488.69;6304252;20;2752439;-46
2023/10/08 08:40:41;;;;;;;;;6.40;4.00;;;;;23.53;48.45;99487.63;6303617;20;2752404;-54
2023/10/08 08:43:12;;;;;;;;;5.00;3.80;;;;;24.20;46.28;99495.97;6302802;20;2745203;-47
2023/10/08 08:45:43;;;;;;;;;4.80;3.20;;;;;24.09;46.88;99493.66;6302990;20;2756564;-50
2023/10/08 08:48:14;;;;;;;;;5.67;3.67;;;;;23.76;48.10;99504.09;6283070;20;2745158;-48
2023/10/08 08:50:44;;;;;;;;;13.67;7.67;;;;;23.18;48.91;99495.41;6309648;20;3483610;-49
2023/10/08 08:53:13;;;;;;;;;30.67;17.00;;;;;23.26;49.01;99498.09;6315538;20;3594041;-51
2023/10/08 08:55:43;;;;;;;;;10.33;8.33;;;;;22.91;50.06;99505.78;6279228;20;2775484;-46
2023/10/08 08:58:12;;;;;;;;;10.67;5.00;;;;;23.21;49.14;99503.25;6317030;20;2764319;-46
2023/10/08 09:00:41;;;;;;;;;7.00;5.00;;;;;23.97;47.46;99503.41;6313972;20;2731559;-50
2023/10/08 09:03:13;;;;;;;;;10.80;7.40;;;;;23.50;48.43;99502.53;6336300;20;2754517;-45
2023/10/08 09:05:42;;;;;;;;;23.00;11.00;;;;;22.96;50.10;99514.34;6285082;20;2834768;-48
2023/10/08 09:08:10;;;;;;;;;7.00;5.67;;;;;23.29;49.36;99519.63;6316811;20;2744095;-47
2023/10/08 09:10:51;;;;;;;;;19.33;16.67;;;;;23.11;49.78;99516.31;6311488;20;2835715;-52
2023/10/08 09:13:24;;;;;;;;;5.00;5.00;;;;;22.47;50.75;99525.44;6313802;20;2741976;-53
2023/10/08 09:16:16;;;;;;;;;6.67;3.67;;;;;22.50;50.85;99535.19;6323008;20;2743086;-48
2023/10/08 09:18:49;;;;;;;;;5.33;4.67;;;;;22.37;51.85;99535.72;6315501;20;2747552;-46
2023/10/08 09:21:22;;;;;;;;;4.60;4.60;;;;;22.17;52.33;99534.34;6339576;20;2745100;-47
2023/10/08 09:23:54;;;;;;;;;4.00;4.00;;;;;22.01;52.59;99536.09;6308518;20;2739900;-51
2023/10/08 09:26:28;;;;;;;;;6.20;4.60;;;;;21.87;53.07;99536.75;6339851;20;2744076;-50
2023/10/08 09:29:01;;;;;;;;;8.40;6.60;;;;;21.98;53.14;99543.75;6338450;20;2743000;-50
2023/10/08 09:31:35;;;;;;;;;7.67;4.67;;;;;21.75;54.05;99546.31;6279115;20;2751027;-48
2023/10/08 09:34:04;;;;;;;;;13.00;6.00;;;;;21.77;54.06;99536.91;6312725;20;3502430;-48
2023/10/08 09:36:33;;;;;;;;;11.67;6.67;;;;;21.79;53.81;99539.50;6315476;20;2767127;-45
2023/10/08 09:39:05;;;;;;;;;11.80;4.80;;;;;21.77;53.85;99547.84;6335683;20;2772547;-49
2023/10/08 09:41:38;;;;;;;;;7.40;5.80;;;;;21.73;54.84;99549.25;6307175;20;2746163;-50
2023/10/08 09:44:10;;;;;;;;;9.00;6.40;;;;;21.81;54.53;99543.78;6305305;20;2756564;-48
2023/10/08 09:46:43;;;;;;;;;6.00;4.00;;;;;21.73;55.48;99562.06;6279262;20;2752340;-53
2023/10/08 09:49:16;;;;;;;;;15.67;8.00;;;;;21.87;54.89;99550.44;6311855;20;2778548;-46
2023/10/08 09:51:47;;;;;;;;;22.00;10.00;;;;;21.77;54.64;99560.66;6309115;20;2475283;-50
2023/10/08 09:54:32;;;;;;;;;32.33;13.67;;;;;21.85;55.01;99560.69;6313480;20;2475278;-46
2023/10/08 09:57:06;;;;;;;;;10.67;6.00;;;;;22.00;54.79;99567.19;6311996;20;2769102;-49
2023/10/08 09:59:36;;;;;;;;;12.33;7.67;;;;;21.82;55.19;99585.63;6313801;20;2755489;-50
2023/10/08 10:02:09;;;;;;;;;14.67;7.67;;;;;21.81;55.14;99575.72;6318294;20;2769126;-46
2023/10/08 10:04:44;;;;;;;;;15.00;7.33;;;;;22.01;55.37;99596.25;6313540;20;3502339;-45
2023/10/08 10:07:16;;;;;;;;;14.33;9.33;;;;;21.80;55.68;99598.59;6317538;20;2792020;-46
2023/10/08 10:09:50;;;;;;;;;17.33;7.33;;;;;21.60;56.45;99600.78;6310414;20;3512864;-47
2023/10/08 10:12:27;;;;;;;;;12.67;7.67;;;;;21.60;56.37;99612.56;6280653;20;3479425;-47
2023/10/08 10:15:00;;;;;;;;;8.67;6.00;;;;;21.46;57.39;99602.31;6325675;20;2743057;-46
2023/10/08 10:17:30;;;;;;;;;6.80;5.00;;;;;21.04;58.83;99616.81;6343249;20;2734660;-49
2023/10/08 10:20:16;;;;;;;;;6.00;4.00;;;;;20.86;59.93;99603.22;6335517;20;2749261;-50
2023/10/08 10:22:45;;;;;;;;;4.60;4.60;;;;;20.97;59.56;99624.78;6310436;20;2748289;-49
2023/10/08 10:25:18;;;;;;;;;3.60;2.80;;;;;20.97;59.35;99619.31;6342396;20;2749227;-46
2023/10/08 10:27:53;;;;;;;;;5.80;3.60;;;;;20.92;59.96;99626.28;6340892;20;2747265;-51
2023/10/08 10:30:23;;;;;;;;;5.00;2.60;;;;;20.83;60.56;99623.50;6309072;20;2750327;-46
2023/10/08 10:33:00;;;;;;;;;3.20;2.60;;;;;20.93;59.59;99608.88;6309660;20;2738928;-47
2023/10/08 10:35:30;;;;;;;;;3.00;2.00;;;;;20.83;59.86;99618.06;6339668;20;2756692;-46
2023/10/08 10:38:03;;;;;;;;;4.60;4.60;;;;;20.98;59.37;99615.56;6311598;20;2748201;-50
2023/10/08 10:40:39;;;;;;;;;5.60;3.60;;;;;20.96;59.13;99638.59;6312811;20;2739889;-52
2023/10/08 10:43:09;;;;;;;;;2.00;2.00;;;;;20.93;59.31;99628.88;6343965;20;2733651;-53
2023/10/08 10:45:47;;;;;;;;;3.60;2.80;;;;;21.34;58.51;99620.84;6341681;20;2749244;-49
2023/10/08 10:51:10;;;;;;;;;5.80;3.60;;;;;21.02;58.40;99637.94;6340169;20;2752399;-47
2023/10/08 10:54:07;;;;;;;;;2.80;2.80;;;;;20.97;59.28;99641.16;6309455;20;2748218;-51
2023/10/08 10:56:42;;;;;;;;;4.00;2.80;;;;;21.10;58.67;99637.13;6337482;20;2744034;-49
2023/10/08 10:59:18;;;;;;;;;1.40;1.40;;;;;20.79;59.36;99643.09;6338142;20;2753448;-49
2023/10/08 11:02:05;;;;;;;;;4.60;3.00;;;;;20.90;59.13;99637.34;6344436;20;2741958;-50
2023/10/08 11:04:47;;;;;;;;;1.40;1.00;;;;;20.91;59.01;99630.03;6340113;20;2754431;-46
2023/10/08 11:07:23;;;;;;;;;3.00;1.20;;;;;20.90;59.61;99612.78;6307810;20;2731568;-46
2023/10/08 11:09:55;;;;;;;;;2.60;2.00;;;;;21.30;58.02;99637.72;6342443;20;2730535;-48
2023/10/08 11:12:32;;;;;;;;;1.60;0.60;;;;;20.76;58.16;99635.22;6338375;20;2729494;-48
2023/10/08 11:15:05;;;;;;;;;1.60;1.60;;;;;20.47;59.77;99644.56;6339715;20;2735866;-50
2023/10/08 11:17:33;;;;;;;;;1.00;1.00;;;;;20.23;59.28;99642.50;6320382;20;2737872;-48
2023/10/08 11:20:07;;;;;;;;;0.67;0.67;;;;;20.11;59.03;99639.13;6320738;20;2726429;-48
2023/10/08 11:22:44;;;;;;;;;0.00;0.00;;;;;20.17;58.94;99630.34;6320200;20;2729483;-46
2023/10/08 11:25:27;;;;;;;;;2.67;0.67;;;;;20.44;58.24;99633.13;6320687;20;2726375;-50
2023/10/08 11:28:02;;;;;;;;;1.67;0.67;;;;;20.46;59.18;99631.94;6314557;20;2727495;-46
2023/10/08 11:30:35;;;;;;;;;1.00;1.00;;;;;20.23;59.16;99634.31;6313033;20;2739869;-50
2023/10/08 11:33:06;;;;;;;;;1.67;1.67;;;;;20.18;60.12;99639.38;6318501;20;2736916;-50
2023/10/08 11:35:35;;;;;;;;;0.33;0.00;;;;;20.10;59.55;99655.66;6316335;20;2735702;-47
2023/10/08 11:38:04;;;;;;;;;0.20;0.20;;;;;19.99;59.63;99642.28;6340080;20;2733608;-50
2023/10/08 11:40:56;;;;;;;;;0.00;0.00;;;;;19.84;59.94;99645.53;6319779;20;2727423;-52
2023/10/08 11:43:23;;;;;;;;;0.00;0.00;;;;;20.02;58.82;99647.41;6320959;20;2730559;-47
2023/10/08 11:45:52;;;;;;;;;1.67;0.00;;;;;20.05;58.13;99647.09;6318575;20;2727391;-48
2023/10/08 11:48:28;;;;;;;;;0.00;0.00;;;;;20.33;57.90;99643.25;6319717;20;2727572;-53
2023/10/08 11:50:57;;;;;;;;;6.00;1.00;;;;;20.23;56.89;99641.63;6315954;20;2731550;-49
2023/10/08 11:53:26;;;;;;;;;2.67;0.67;;;;;20.30;56.22;99626.34;6318169;20;2732721;-52
2023/10/08 11:55:56;;;;;;;;;1.00;0.00;;;;;20.33;55.06;99642.41;6320202;20;2729477;-46
2023/10/08 11:58:37;;;;;;;;;1.33;0.00;;;;;20.27;54.28;99643.88;6314911;20;2727380;-47
2023/10/08 12:01:15;;;;;;;;;6.80;0.20;;;;;20.18;54.84;99640.22;6338854;20;2764881;-48
2023/10/08 12:03:51;;;;;;;;;1.20;0.20;;;;;20.21;54.09;99663.59;6307521;20;2740086;-48
2023/10/08 12:06:21;;;;;;;;;3.00;2.00;;;;;20.05;55.58;99679.81;6315888;20;2740986;-46
2023/10/08 12:08:53;;;;;;;;;2.80;0.60;;;;;19.88;56.46;99665.16;6340857;20;2741974;-44
2023/10/08 12:11:30;;;;;;;;;7.00;1.80;;;;;19.85;56.90;99668.19;6339533;20;2742011;-45
2023/10/08 12:14:00;;;;;;;;;3.00;0.67;;;;;19.71;56.40;99672.31;6316654;20;2739858;-45
2023/10/08 12:16:35;;;;;;;;;2.00;0.33;;;;;19.75;56.13;99679.16;6316782;20;2729472;-43
2023/10/08 12:19:15;;;;;;;;;1.33;0.00;;;;;19.72;56.46;99688.50;6314649;20;2733685;-44
2023/10/08 12:21:47;;;;;;;;;0.00;0.00;;;;;19.66;56.68;99696.38;6315776;20;2733880;-47
2023/10/08 12:24:17;;;;;;;;;3.33;2.00;;;;;19.60;56.27;99708.75;6318725;20;2739891;-45
2023/10/08 12:26:45;;;;;;;;;1.00;1.00;;;;;19.45;53.59;99705.66;6316982;20;2740004;-47
2023/10/08 12:29:19;;;;;;;;;8.00;6.20;;;;;19.44;52.84;99712.13;6335281;20;2744035;-46
2023/10/08 12:31:47;;;;;;;;;8.00;8.00;;;;;19.28;53.08;99717.38;6313384;20;2736860;-45